Airport View

Enter ICAO identifier to see the current METAR for that AWOS.

KFNL for example

KORB 282253Z AUTO 00000KT 10SM OVC070 19/13 A2995 RMK AO2

28 Aug 2014 23:12

Frequency: 118.325

Phone: 218-757-3169

Other Area AWOS: KCQM - KCDD - KFOZ - KHIB

TAF KHIB 281744Z 2818/2918 VRB05KT P6SM SCT030 FM290700 12004KT P6SM VCSH SCT035 BKN060 FM291200 07005KT 5SM BR VCSH BKN015 OVC035 PROB30 2912/2916 2SM -SHRA BR BKN008 FM291600 08006KT 3SM -SHRA BR OVC008